Terminal Aerodrome Forecast
Issued by NWS Springfield, MO

Home | Current Version | Previous Version | Text Only | Print | Product List | Glossary On
Versions: 1 2 3 4 5 6 7 8 9 10 11 12 13 14 15 16 17 18 19 20 21 22
676
FTUS43 KSGF 271936 AAC
TAFSGF
TAF AMD
KSGF 271936Z 2720/2818 15015G22KT P6SM VCSH SCT050 BKN100
     FM272200 16017G24KT P6SM SCT025 BKN050
     FM280000 16012G20KT P6SM SCT015 OVC025
     FM280300 18014G21KT P6SM SCT007 OVC015
     FM281400 19017G27KT P6SM BKN050=

USA.gov is the U.S. government's official web portal to all federal, state and local government web resources and services.